sensor_id;sensor_type;location;lat;lon;timestamp;temperature;humidity
20795;DHT22;28087;-33.874;151.240;2023-01-31T01:09:59;24.70;99.90
20795;DHT22;28087;-33.874;151.240;2023-01-31T01:12:35;24.70;99.90
20795;DHT22;28087;-33.874;151.240;2023-01-31T02:15:56;25.50;99.90
20795;DHT22;28087;-33.874;151.240;2023-01-31T02:18:33;25.80;99.90
20795;DHT22;28087;-33.874;151.240;2023-01-31T02:21:55;25.90;99.90
20795;DHT22;28087;-33.874;151.240;2023-01-31T02:28:21;26.30;99.90
20795;DHT22;28087;-33.874;151.240;2023-01-31T02:31:44;26.50;99.90
20795;DHT22;28087;-33.874;151.240;2023-01-31T02:34:33;26.50;99.90
20795;DHT22;28087;-33.874;151.240;2023-01-31T02:37:19;26.60;99.90
20795;DHT22;28087;-33.874;151.240;2023-01-31T02:40:05;26.70;99.90
20795;DHT22;28087;-33.874;151.240;2023-01-31T02:45:38;26.80;99.90
20795;DHT22;28087;-33.874;151.240;2023-01-31T02:48:20;26.70;99.90
20795;DHT22;28087;-33.874;151.240;2023-01-31T02:51:06;26.70;99.90
20795;DHT22;28087;-33.874;151.240;2023-01-31T02:59:02;26.60;99.90
20795;DHT22;28087;-33.874;151.240;2023-01-31T03:01:49;26.80;99.90
20795;DHT22;28087;-33.874;151.240;2023-01-31T03:04:28;26.90;99.90
20795;DHT22;28087;-33.874;151.240;2023-01-31T03:07:30;27.00;99.90
20795;DHT22;28087;-33.874;151.240;2023-01-31T03:10:26;27.30;99.90
20795;DHT22;28087;-33.874;151.240;2023-01-31T03:13:17;27.40;99.90
20795;DHT22;28087;-33.874;151.240;2023-01-31T03:16:03;27.30;99.90
20795;DHT22;28087;-33.874;151.240;2023-01-31T03:19:02;27.40;99.90
20795;DHT22;28087;-33.874;151.240;2023-01-31T03:22:06;27.40;99.90
20795;DHT22;28087;-33.874;151.240;2023-01-31T03:24:52;27.50;99.90
20795;DHT22;28087;-33.874;151.240;2023-01-31T03:27:28;27.40;99.90
20795;DHT22;28087;-33.874;151.240;2023-01-31T03:30:12;27.40;99.90
20795;DHT22;28087;-33.874;151.240;2023-01-31T03:32:55;27.30;99.90
20795;DHT22;28087;-33.874;151.240;2023-01-31T03:35:36;27.40;99.90
20795;DHT22;28087;-33.874;151.240;2023-01-31T03:38:16;27.40;99.90
20795;DHT22;28087;-33.874;151.240;2023-01-31T03:41:01;27.40;99.90
20795;DHT22;28087;-33.874;151.240;2023-01-31T03:43:49;27.40;99.90
20795;DHT22;28087;-33.874;151.240;2023-01-31T03:46:33;27.40;99.90
20795;DHT22;28087;-33.874;151.240;2023-01-31T03:49:11;27.30;99.90
20795;DHT22;28087;-33.874;151.240;2023-01-31T03:51:50;27.20;99.90
20795;DHT22;28087;-33.874;151.240;2023-01-31T03:54:35;27.10;99.90
20795;DHT22;28087;-33.874;151.240;2023-01-31T03:57:17;27.10;99.90
20795;DHT22;28087;-33.874;151.240;2023-01-31T03:59:57;27.30;99.90
20795;DHT22;28087;-33.874;151.240;2023-01-31T04:02:49;27.30;99.90
20795;DHT22;28087;-33.874;151.240;2023-01-31T04:05:26;27.30;99.90
20795;DHT22;28087;-33.874;151.240;2023-01-31T04:08:06;27.20;99.90
20795;DHT22;28087;-33.874;151.240;2023-01-31T04:10:44;27.10;99.90
20795;DHT22;28087;-33.874;151.240;2023-01-31T04:13:26;27.20;99.90
20795;DHT22;28087;-33.874;151.240;2023-01-31T04:16:04;27.20;99.90
20795;DHT22;28087;-33.874;151.240;2023-01-31T04:18:41;27.40;99.90
20795;DHT22;28087;-33.874;151.240;2023-01-31T04:21:32;27.40;99.90
20795;DHT22;28087;-33.874;151.240;2023-01-31T04:24:08;27.50;99.90
20795;DHT22;28087;-33.874;151.240;2023-01-31T04:26:42;27.50;99.90
20795;DHT22;28087;-33.874;151.240;2023-01-31T04:29:20;27.50;99.90
20795;DHT22;28087;-33.874;151.240;2023-01-31T04:31:55;27.60;99.90
20795;DHT22;28087;-33.874;151.240;2023-01-31T04:34:33;27.60;99.90
20795;DHT22;28087;-33.874;151.240;2023-01-31T04:37:09;27.30;99.90
20795;DHT22;28087;-33.874;151.240;2023-01-31T04:39:45;27.50;99.90
20795;DHT22;28087;-33.874;151.240;2023-01-31T04:42:21;27.50;99.90
20795;DHT22;28087;-33.874;151.240;2023-01-31T04:47:41;27.10;99.90
20795;DHT22;28087;-33.874;151.240;2023-01-31T11:05:12;23.80;99.90
20795;DHT22;28087;-33.874;151.240;2023-01-31T11:07:58;23.90;99.90
20795;DHT22;28087;-33.874;151.240;2023-01-31T11:10:33;24.00;99.90
20795;DHT22;28087;-33.874;151.240;2023-01-31T11:17:24;23.90;99.90
20795;DHT22;28087;-33.874;151.240;2023-01-31T11:20:01;24.00;99.90
20795;DHT22;28087;-33.874;151.240;2023-01-31T13:29:13;23.40;99.90
20795;DHT22;28087;-33.874;151.240;2023-01-31T13:34:59;23.40;99.90
20795;DHT22;28087;-33.874;151.240;2023-01-31T14:31:37;23.20;99.90
20795;DHT22;28087;-33.874;151.240;2023-01-31T14:34:24;23.20;99.90
20795;DHT22;28087;-33.874;151.240;2023-01-31T14:37:10;23.20;99.90
20795;DHT22;28087;-33.874;151.240;2023-01-31T14:40:11;23.20;99.90
20795;DHT22;28087;-33.874;151.240;2023-01-31T14:51:29;23.10;99.90
20795;DHT22;28087;-33.874;151.240;2023-01-31T14:54:28;23.00;99.90
20795;DHT22;28087;-33.874;151.240;2023-01-31T14:57:19;23.10;99.90
20795;DHT22;28087;-33.874;151.240;2023-01-31T14:59:58;23.10;99.90
20795;DHT22;28087;-33.874;151.240;2023-01-31T15:02:54;23.10;99.90
20795;DHT22;28087;-33.874;151.240;2023-01-31T15:05:44;23.10;99.90
20795;DHT22;28087;-33.874;151.240;2023-01-31T15:08:44;23.10;99.90
20795;DHT22;28087;-33.874;151.240;2023-01-31T15:11:39;23.10;99.90
20795;DHT22;28087;-33.874;151.240;2023-01-31T15:14:42;23.00;99.90
20795;DHT22;28087;-33.874;151.240;2023-01-31T15:17:28;23.00;99.90
20795;DHT22;28087;-33.874;151.240;2023-01-31T15:20:42;23.00;99.90
20795;DHT22;28087;-33.874;151.240;2023-01-31T15:23:42;23.00;99.90
20795;DHT22;28087;-33.874;151.240;2023-01-31T15:26:18;23.00;99.90
20795;DHT22;28087;-33.874;151.240;2023-01-31T15:29:03;23.00;99.90
20795;DHT22;28087;-33.874;151.240;2023-01-31T15:31:42;23.00;99.90
20795;DHT22;28087;-33.874;151.240;2023-01-31T15:34:22;23.00;99.90
20795;DHT22;28087;-33.874;151.240;2023-01-31T15:37:05;23.10;99.90
20795;DHT22;28087;-33.874;151.240;2023-01-31T15:39:53;23.00;99.90
20795;DHT22;28087;-33.874;151.240;2023-01-31T15:42:32;23.10;99.90
20795;DHT22;28087;-33.874;151.240;2023-01-31T15:45:21;23.10;99.90
20795;DHT22;28087;-33.874;151.240;2023-01-31T15:47:59;23.20;99.90
20795;DHT22;28087;-33.874;151.240;2023-01-31T15:50:48;23.10;99.90
20795;DHT22;28087;-33.874;151.240;2023-01-31T15:53:28;23.20;99.90
20795;DHT22;28087;-33.874;151.240;2023-01-31T15:56:07;23.20;99.90
20795;DHT22;28087;-33.874;151.240;2023-01-31T15:58:47;23.20;99.90
20795;DHT22;28087;-33.874;151.240;2023-01-31T16:01:27;23.20;99.90
20795;DHT22;28087;-33.874;151.240;2023-01-31T16:06:59;23.20;99.90
20795;DHT22;28087;-33.874;151.240;2023-01-31T16:09:39;23.10;99.90
20795;DHT22;28087;-33.874;151.240;2023-01-31T16:12:15;23.20;99.90
20795;DHT22;28087;-33.874;151.240;2023-01-31T16:15:14;23.20;99.90
20795;DHT22;28087;-33.874;151.240;2023-01-31T16:17:52;23.20;99.90
20795;DHT22;28087;-33.874;151.240;2023-01-31T16:20:55;23.20;99.90
20795;DHT22;28087;-33.874;151.240;2023-01-31T16:23:38;23.20;99.90
20795;DHT22;28087;-33.874;151.240;2023-01-31T16:26:21;23.20;99.90
20795;DHT22;28087;-33.874;151.240;2023-01-31T16:29:07;23.10;99.90
20795;DHT22;28087;-33.874;151.240;2023-01-31T18:13:06;22.70;99.90
20795;DHT22;28087;-33.874;151.240;2023-01-31T18:16:02;22.60;99.90
20795;DHT22;28087;-33.874;151.240;2023-01-31T18:18:38;22.70;99.90
20795;DHT22;28087;-33.874;151.240;2023-01-31T18:21:15;22.60;99.90
20795;DHT22;28087;-33.874;151.240;2023-01-31T18:24:38;22.60;99.90
20795;DHT22;28087;-33.874;151.240;2023-01-31T18:27:45;22.50;99.90
20795;DHT22;28087;-33.874;151.240;2023-01-31T18:30:21;22.50;99.90
20795;DHT22;28087;-33.874;151.240;2023-01-31T18:32:57;22.50;99.90
20795;DHT22;28087;-33.874;151.240;2023-01-31T18:35:34;22.50;99.90
20795;DHT22;28087;-33.874;151.240;2023-01-31T18:38:12;22.60;99.90
20795;DHT22;28087;-33.874;151.240;2023-01-31T18:40:54;22.50;99.90
20795;DHT22;28087;-33.874;151.240;2023-01-31T18:43:44;22.60;99.90
20795;DHT22;28087;-33.874;151.240;2023-01-31T18:46:32;22.40;99.90
20795;DHT22;28087;-33.874;151.240;2023-01-31T18:49:08;22.60;99.90
20795;DHT22;28087;-33.874;151.240;2023-01-31T18:51:45;22.60;99.90
20795;DHT22;28087;-33.874;151.240;2023-01-31T18:54:42;22.60;99.90
20795;DHT22;28087;-33.874;151.240;2023-01-31T18:57:38;22.60;99.90
20795;DHT22;28087;-33.874;151.240;2023-01-31T19:00:20;22.60;99.90
20795;DHT22;28087;-33.874;151.240;2023-01-31T19:02:56;22.60;99.90
20795;DHT22;28087;-33.874;151.240;2023-01-31T19:05:35;22.60;99.90
20795;DHT22;28087;-33.874;151.240;2023-01-31T19:08:34;22.60;99.90
20795;DHT22;28087;-33.874;151.240;2023-01-31T19:11:10;22.60;99.90
20795;DHT22;28087;-33.874;151.240;2023-01-31T19:13:47;22.60;99.90
20795;DHT22;28087;-33.874;151.240;2023-01-31T19:16:26;22.60;99.90
20795;DHT22;28087;-33.874;151.240;2023-01-31T19:19:02;22.60;99.90
20795;DHT22;28087;-33.874;151.240;2023-01-31T19:21:51;22.60;99.90
20795;DHT22;28087;-33.874;151.240;2023-01-31T19:24:28;22.60;99.90
20795;DHT22;28087;-33.874;151.240;2023-01-31T19:27:06;22.60;99.90
20795;DHT22;28087;-33.874;151.240;2023-01-31T19:30:10;22.60;99.90
20795;DHT22;28087;-33.874;151.240;2023-01-31T19:38:59;22.60;99.90
20795;DHT22;28087;-33.874;151.240;2023-01-31T19:42:06;22.60;99.90
20795;DHT22;28087;-33.874;151.240;2023-01-31T19:44:42;22.60;99.90
20795;DHT22;28087;-33.874;151.240;2023-01-31T19:49:54;22.60;99.90
20795;DHT22;28087;-33.874;151.240;2023-01-31T19:52:30;22.70;99.90
20795;DHT22;28087;-33.874;151.240;2023-01-31T19:55:09;22.70;99.90
20795;DHT22;28087;-33.874;151.240;2023-01-31T19:58:02;22.70;99.90
20795;DHT22;28087;-33.874;151.240;2023-01-31T20:00:38;22.70;99.90
20795;DHT22;28087;-33.874;151.240;2023-01-31T20:03:15;22.70;99.90
20795;DHT22;28087;-33.874;151.240;2023-01-31T20:05:53;22.80;99.90
20795;DHT22;28087;-33.874;151.240;2023-01-31T20:12:02;22.70;99.90
20795;DHT22;28087;-33.874;151.240;2023-01-31T20:22:25;22.80;99.90
20795;DHT22;28087;-33.874;151.240;2023-01-31T21:09:15;23.80;99.90
20795;DHT22;28087;-33.874;151.240;2023-01-31T21:12:25;24.00;99.90
20795;DHT22;28087;-33.874;151.240;2023-01-31T21:15:00;24.10;99.90
20795;DHT22;28087;-33.874;151.240;2023-01-31T21:17:35;24.20;99.90
20795;DHT22;28087;-33.874;151.240;2023-01-31T21:20:23;24.20;99.90
20795;DHT22;28087;-33.874;151.240;2023-01-31T21:22:59;24.30;99.90
20795;DHT22;28087;-33.874;151.240;2023-01-31T21:25:40;24.30;99.90
20795;DHT22;28087;-33.874;151.240;2023-01-31T21:28:18;24.40;99.90
20795;DHT22;28087;-33.874;151.240;2023-01-31T21:30:58;24.40;99.90
20795;DHT22;28087;-33.874;151.240;2023-01-31T21:33:38;24.50;99.90
20795;DHT22;28087;-33.874;151.240;2023-01-31T21:36:14;24.60;99.90
20795;DHT22;28087;-33.874;151.240;2023-01-31T21:38:51;24.60;99.90
20795;DHT22;28087;-33.874;151.240;2023-01-31T21:41:58;24.60;99.90
20795;DHT22;28087;-33.874;151.240;2023-01-31T21:45:20;24.60;99.90
20795;DHT22;28087;-33.874;151.240;2023-01-31T21:48:12;24.60;99.90
20795;DHT22;28087;-33.874;151.240;2023-01-31T21:51:10;24.70;99.90
20795;DHT22;28087;-33.874;151.240;2023-01-31T21:53:49;24.70;99.90
20795;DHT22;28087;-33.874;151.240;2023-01-31T21:56:32;24.80;99.90
20795;DHT22;28087;-33.874;151.240;2023-01-31T21:59:07;24.90;99.90
20795;DHT22;28087;-33.874;151.240;2023-01-31T22:01:58;25.00;99.90
20795;DHT22;28087;-33.874;151.240;2023-01-31T22:04:34;25.10;99.90
20795;DHT22;28087;-33.874;151.240;2023-01-31T22:10:33;25.30;99.90
20795;DHT22;28087;-33.874;151.240;2023-01-31T22:13:09;25.30;99.90
20795;DHT22;28087;-33.874;151.240;2023-01-31T22:15:58;25.40;99.90
20795;DHT22;28087;-33.874;151.240;2023-01-31T22:18:36;25.50;99.90
20795;DHT22;28087;-33.874;151.240;2023-01-31T22:21:15;25.50;99.90
20795;DHT22;28087;-33.874;151.240;2023-01-31T22:23:59;25.60;99.90
20795;DHT22;28087;-33.874;151.240;2023-01-31T22:26:37;25.70;99.90
20795;DHT22;28087;-33.874;151.240;2023-01-31T22:29:14;25.80;99.90
20795;DHT22;28087;-33.874;151.240;2023-01-31T22:31:53;25.90;99.90
20795;DHT22;28087;-33.874;151.240;2023-01-31T22:34:31;25.90;99.90
20795;DHT22;28087;-33.874;151.240;2023-01-31T22:37:34;25.90;99.90
20795;DHT22;28087;-33.874;151.240;2023-01-31T22:40:11;26.00;99.90
20795;DHT22;28087;-33.874;151.240;2023-01-31T22:42:48;26.10;99.90
20795;DHT22;28087;-33.874;151.240;2023-01-31T22:45:45;26.20;99.90
20795;DHT22;28087;-33.874;151.240;2023-01-31T22:48:24;26.20;99.90
20795;DHT22;28087;-33.874;151.240;2023-01-31T22:51:03;26.30;99.90
20795;DHT22;28087;-33.874;151.240;2023-01-31T22:53:39;26.30;99.90
20795;DHT22;28087;-33.874;151.240;2023-01-31T22:56:16;26.30;99.90
20795;DHT22;28087;-33.874;151.240;2023-01-31T22:58:57;26.20;99.90
20795;DHT22;28087;-33.874;151.240;2023-01-31T23:01:33;26.10;99.90
20795;DHT22;28087;-33.874;151.240;2023-01-31T23:04:16;26.10;99.90
20795;DHT22;28087;-33.874;151.240;2023-01-31T23:08:20;26.10;99.90
20795;DHT22;28087;-33.874;151.240;2023-01-31T23:11:01;26.20;99.90
20795;DHT22;28087;-33.874;151.240;2023-01-31T23:13:37;26.20;99.90
20795;DHT22;28087;-33.874;151.240;2023-01-31T23:16:21;26.20;99.90
20795;DHT22;28087;-33.874;151.240;2023-01-31T23:19:30;26.30;99.90
20795;DHT22;28087;-33.874;151.240;2023-01-31T23:22:05;26.20;99.90
20795;DHT22;28087;-33.874;151.240;2023-01-31T23:25:46;26.20;99.90
20795;DHT22;28087;-33.874;151.240;2023-01-31T23:28:29;26.20;99.90
20795;DHT22;28087;-33.874;151.240;2023-01-31T23:31:04;26.30;99.90
20795;DHT22;28087;-33.874;151.240;2023-01-31T23:33:41;26.30;99.90
20795;DHT22;28087;-33.874;151.240;2023-01-31T23:36:18;26.30;99.90
20795;DHT22;28087;-33.874;151.240;2023-01-31T23:38:56;26.40;99.90
20795;DHT22;28087;-33.874;151.240;2023-01-31T23:41:39;26.40;99.90
20795;DHT22;28087;-33.874;151.240;2023-01-31T23:44:16;26.30;99.90
20795;DHT22;28087;-33.874;151.240;2023-01-31T23:46:53;26.30;99.90
20795;DHT22;28087;-33.874;151.240;2023-01-31T23:50:04;26.30;99.90
20795;DHT22;28087;-33.874;151.240;2023-01-31T23:52:39;26.30;99.90
20795;DHT22;28087;-33.874;151.240;2023-01-31T23:56:13;26.30;99.90
20795;DHT22;28087;-33.874;151.240;2023-01-31T23:59:24;26.40;99.90
